sensor_id;sensor_type;location;lat;lon;timestamp;temperature;humidity
6822;DHT22;3449;48.728;8.968;2023-08-01T00:00:39;16.40;99.90
6822;DHT22;3449;48.728;8.968;2023-08-01T00:03:06;16.40;99.90
6822;DHT22;3449;48.728;8.968;2023-08-01T00:05:33;16.40;99.90
6822;DHT22;3449;48.728;8.968;2023-08-01T00:08:01;16.40;99.90
6822;DHT22;3449;48.728;8.968;2023-08-01T00:10:29;16.30;99.90
6822;DHT22;3449;48.728;8.968;2023-08-01T00:12:55;16.30;99.90
6822;DHT22;3449;48.728;8.968;2023-08-01T00:15:24;16.30;99.90
6822;DHT22;3449;48.728;8.968;2023-08-01T00:17:50;16.30;99.90
6822;DHT22;3449;48.728;8.968;2023-08-01T00:20:17;16.40;99.90
6822;DHT22;3449;48.728;8.968;2023-08-01T00:22:44;16.40;99.90
6822;DHT22;3449;48.728;8.968;2023-08-01T00:25:11;16.40;99.90
6822;DHT22;3449;48.728;8.968;2023-08-01T00:27:38;16.40;99.90
6822;DHT22;3449;48.728;8.968;2023-08-01T00:30:06;16.40;99.90
6822;DHT22;3449;48.728;8.968;2023-08-01T00:32:34;16.40;99.90
6822;DHT22;3449;48.728;8.968;2023-08-01T00:35:01;16.40;99.90
6822;DHT22;3449;48.728;8.968;2023-08-01T00:37:30;16.40;99.90
6822;DHT22;3449;48.728;8.968;2023-08-01T00:39:57;16.40;99.90
6822;DHT22;3449;48.728;8.968;2023-08-01T00:42:24;16.40;99.90
6822;DHT22;3449;48.728;8.968;2023-08-01T00:44:51;16.40;99.90
6822;DHT22;3449;48.728;8.968;2023-08-01T00:47:19;16.40;99.90
6822;DHT22;3449;48.728;8.968;2023-08-01T00:49:56;16.30;99.90
6822;DHT22;3449;48.728;8.968;2023-08-01T00:52:26;16.30;99.90
6822;DHT22;3449;48.728;8.968;2023-08-01T00:54:54;16.30;99.90
6822;DHT22;3449;48.728;8.968;2023-08-01T00:57:21;16.40;99.90
6822;DHT22;3449;48.728;8.968;2023-08-01T00:59:48;16.40;99.90
6822;DHT22;3449;48.728;8.968;2023-08-01T01:02:15;16.40;99.90
6822;DHT22;3449;48.728;8.968;2023-08-01T01:04:42;16.30;99.90
6822;DHT22;3449;48.728;8.968;2023-08-01T01:07:10;16.30;99.90
6822;DHT22;3449;48.728;8.968;2023-08-01T01:09:41;16.40;99.90
6822;DHT22;3449;48.728;8.968;2023-08-01T01:12:08;16.40;99.90
6822;DHT22;3449;48.728;8.968;2023-08-01T01:14:35;16.40;99.90
6822;DHT22;3449;48.728;8.968;2023-08-01T01:17:02;16.30;99.90
6822;DHT22;3449;48.728;8.968;2023-08-01T01:19:28;16.30;99.90
6822;DHT22;3449;48.728;8.968;2023-08-01T01:21:57;16.30;99.90
6822;DHT22;3449;48.728;8.968;2023-08-01T01:24:26;16.30;99.90
6822;DHT22;3449;48.728;8.968;2023-08-01T01:26:54;16.30;99.90
6822;DHT22;3449;48.728;8.968;2023-08-01T01:29:26;16.30;99.90
6822;DHT22;3449;48.728;8.968;2023-08-01T01:31:54;16.30;99.90
6822;DHT22;3449;48.728;8.968;2023-08-01T01:34:21;16.30;99.90
6822;DHT22;3449;48.728;8.968;2023-08-01T01:36:48;16.30;99.90
6822;DHT22;3449;48.728;8.968;2023-08-01T01:39:16;16.30;99.90
6822;DHT22;3449;48.728;8.968;2023-08-01T01:41:43;16.30;99.90
6822;DHT22;3449;48.728;8.968;2023-08-01T01:44:10;16.20;99.90
6822;DHT22;3449;48.728;8.968;2023-08-01T01:46:37;16.20;99.90
6822;DHT22;3449;48.728;8.968;2023-08-01T01:49:03;16.20;99.90
6822;DHT22;3449;48.728;8.968;2023-08-01T01:51:31;16.20;99.90
6822;DHT22;3449;48.728;8.968;2023-08-01T01:53:59;16.10;99.90
6822;DHT22;3449;48.728;8.968;2023-08-01T01:56:27;16.20;99.90
6822;DHT22;3449;48.728;8.968;2023-08-01T01:58:55;16.10;99.90
6822;DHT22;3449;48.728;8.968;2023-08-01T02:01:24;16.10;99.90
6822;DHT22;3449;48.728;8.968;2023-08-01T02:03:51;16.10;99.90
6822;DHT22;3449;48.728;8.968;2023-08-01T02:06:18;16.10;99.90
6822;DHT22;3449;48.728;8.968;2023-08-01T02:08:45;16.10;99.90
6822;DHT22;3449;48.728;8.968;2023-08-01T02:11:12;16.10;99.90
6822;DHT22;3449;48.728;8.968;2023-08-01T02:13:40;16.10;99.90
6822;DHT22;3449;48.728;8.968;2023-08-01T02:16:07;16.10;99.90
6822;DHT22;3449;48.728;8.968;2023-08-01T02:18:34;16.10;99.90
6822;DHT22;3449;48.728;8.968;2023-08-01T02:21:00;16.10;99.90
6822;DHT22;3449;48.728;8.968;2023-08-01T02:23:27;16.10;99.90
6822;DHT22;3449;48.728;8.968;2023-08-01T02:25:54;16.10;99.90
6822;DHT22;3449;48.728;8.968;2023-08-01T02:28:21;16.20;99.90
6822;DHT22;3449;48.728;8.968;2023-08-01T02:30:49;16.20;99.90
6822;DHT22;3449;48.728;8.968;2023-08-01T02:33:16;16.30;99.90
6822;DHT22;3449;48.728;8.968;2023-08-01T02:35:43;16.30;99.90
6822;DHT22;3449;48.728;8.968;2023-08-01T02:38:13;16.30;99.90
6822;DHT22;3449;48.728;8.968;2023-08-01T02:40:40;16.40;99.90
6822;DHT22;3449;48.728;8.968;2023-08-01T02:43:06;16.40;99.90
6822;DHT22;3449;48.728;8.968;2023-08-01T02:45:33;16.40;99.90
6822;DHT22;3449;48.728;8.968;2023-08-01T02:48:02;16.40;99.90
6822;DHT22;3449;48.728;8.968;2023-08-01T02:50:28;16.40;99.90
6822;DHT22;3449;48.728;8.968;2023-08-01T02:52:55;16.40;99.90
6822;DHT22;3449;48.728;8.968;2023-08-01T02:55:22;16.40;99.90
6822;DHT22;3449;48.728;8.968;2023-08-01T02:57:49;16.40;99.90
6822;DHT22;3449;48.728;8.968;2023-08-01T03:00:16;16.50;99.90
6822;DHT22;3449;48.728;8.968;2023-08-01T03:02:43;16.50;99.90
6822;DHT22;3449;48.728;8.968;2023-08-01T03:05:11;16.50;99.90
6822;DHT22;3449;48.728;8.968;2023-08-01T03:07:38;16.50;99.90
6822;DHT22;3449;48.728;8.968;2023-08-01T03:10:05;16.50;99.90
6822;DHT22;3449;48.728;8.968;2023-08-01T03:12:32;16.60;99.90
6822;DHT22;3449;48.728;8.968;2023-08-01T03:14:59;16.60;99.90
6822;DHT22;3449;48.728;8.968;2023-08-01T03:17:26;16.70;99.90
6822;DHT22;3449;48.728;8.968;2023-08-01T03:19:55;16.70;99.90
6822;DHT22;3449;48.728;8.968;2023-08-01T03:22:25;16.80;99.90
6822;DHT22;3449;48.728;8.968;2023-08-01T03:24:52;16.80;99.90
6822;DHT22;3449;48.728;8.968;2023-08-01T03:27:18;16.80;99.90
6822;DHT22;3449;48.728;8.968;2023-08-01T03:29:45;16.90;99.90
6822;DHT22;3449;48.728;8.968;2023-08-01T03:32:12;16.90;99.90
6822;DHT22;3449;48.728;8.968;2023-08-01T03:34:42;17.00;99.90
6822;DHT22;3449;48.728;8.968;2023-08-01T03:37:09;17.00;99.90
6822;DHT22;3449;48.728;8.968;2023-08-01T03:39:37;17.10;99.90
6822;DHT22;3449;48.728;8.968;2023-08-01T03:42:04;17.10;99.90
6822;DHT22;3449;48.728;8.968;2023-08-01T03:44:31;17.10;99.90
6822;DHT22;3449;48.728;8.968;2023-08-01T03:46:58;17.10;99.90
6822;DHT22;3449;48.728;8.968;2023-08-01T03:49:24;17.10;99.90
6822;DHT22;3449;48.728;8.968;2023-08-01T03:51:51;17.10;99.90
6822;DHT22;3449;48.728;8.968;2023-08-01T03:54:18;17.10;99.90
6822;DHT22;3449;48.728;8.968;2023-08-01T03:56:46;17.00;99.90
6822;DHT22;3449;48.728;8.968;2023-08-01T03:59:14;17.00;99.90
6822;DHT22;3449;48.728;8.968;2023-08-01T04:01:42;17.00;99.90
6822;DHT22;3449;48.728;8.968;2023-08-01T04:04:09;17.00;99.90
6822;DHT22;3449;48.728;8.968;2023-08-01T04:06:36;17.00;99.90
6822;DHT22;3449;48.728;8.968;2023-08-01T04:09:05;16.90;99.90
6822;DHT22;3449;48.728;8.968;2023-08-01T04:11:32;16.90;99.90
6822;DHT22;3449;48.728;8.968;2023-08-01T04:14:00;16.90;99.90
6822;DHT22;3449;48.728;8.968;2023-08-01T04:16:27;16.90;99.90
6822;DHT22;3449;48.728;8.968;2023-08-01T04:18:54;16.90;99.90
6822;DHT22;3449;48.728;8.968;2023-08-01T04:21:23;16.90;99.90
6822;DHT22;3449;48.728;8.968;2023-08-01T04:23:50;16.90;99.90
6822;DHT22;3449;48.728;8.968;2023-08-01T04:26:22;16.90;99.90
6822;DHT22;3449;48.728;8.968;2023-08-01T04:28:49;16.90;99.90
6822;DHT22;3449;48.728;8.968;2023-08-01T04:31:17;16.80;99.90
6822;DHT22;3449;48.728;8.968;2023-08-01T04:33:44;16.80;99.90
6822;DHT22;3449;48.728;8.968;2023-08-01T04:36:11;16.80;99.90
6822;DHT22;3449;48.728;8.968;2023-08-01T04:38:37;16.80;99.90
6822;DHT22;3449;48.728;8.968;2023-08-01T04:41:04;16.80;99.90
6822;DHT22;3449;48.728;8.968;2023-08-01T04:43:31;16.80;99.90
6822;DHT22;3449;48.728;8.968;2023-08-01T04:45:58;16.80;99.90
6822;DHT22;3449;48.728;8.968;2023-08-01T04:48:26;16.80;99.90
6822;DHT22;3449;48.728;8.968;2023-08-01T04:50:53;16.80;99.90
6822;DHT22;3449;48.728;8.968;2023-08-01T04:53:20;16.80;99.90
6822;DHT22;3449;48.728;8.968;2023-08-01T04:55:46;16.80;99.90
6822;DHT22;3449;48.728;8.968;2023-08-01T04:58:13;16.80;99.90
6822;DHT22;3449;48.728;8.968;2023-08-01T05:00:41;16.80;99.90
6822;DHT22;3449;48.728;8.968;2023-08-01T05:03:08;16.80;99.90
6822;DHT22;3449;48.728;8.968;2023-08-01T05:05:36;16.80;99.90
6822;DHT22;3449;48.728;8.968;2023-08-01T05:08:04;16.80;99.90
6822;DHT22;3449;48.728;8.968;2023-08-01T05:10:30;16.80;99.90
6822;DHT22;3449;48.728;8.968;2023-08-01T05:12:57;16.90;99.90
6822;DHT22;3449;48.728;8.968;2023-08-01T05:15:24;16.90;99.90
6822;DHT22;3449;48.728;8.968;2023-08-01T05:17:52;16.90;99.90
6822;DHT22;3449;48.728;8.968;2023-08-01T05:20:19;16.90;99.90
6822;DHT22;3449;48.728;8.968;2023-08-01T05:22:48;16.90;99.90
6822;DHT22;3449;48.728;8.968;2023-08-01T05:25:15;17.00;99.90
6822;DHT22;3449;48.728;8.968;2023-08-01T05:27:44;17.00;99.90
6822;DHT22;3449;48.728;8.968;2023-08-01T05:30:14;17.00;99.90
6822;DHT22;3449;48.728;8.968;2023-08-01T05:32:41;17.00;99.90
6822;DHT22;3449;48.728;8.968;2023-08-01T05:35:09;17.00;99.90
6822;DHT22;3449;48.728;8.968;2023-08-01T05:37:36;17.00;99.90
6822;DHT22;3449;48.728;8.968;2023-08-01T05:40:05;17.00;99.90
6822;DHT22;3449;48.728;8.968;2023-08-01T05:42:32;17.00;99.90
6822;DHT22;3449;48.728;8.968;2023-08-01T05:44:59;17.00;99.90
6822;DHT22;3449;48.728;8.968;2023-08-01T05:47:25;17.10;99.90
6822;DHT22;3449;48.728;8.968;2023-08-01T05:49:52;17.10;99.90
6822;DHT22;3449;48.728;8.968;2023-08-01T05:52:19;17.20;99.90
6822;DHT22;3449;48.728;8.968;2023-08-01T05:54:46;17.20;99.90
6822;DHT22;3449;48.728;8.968;2023-08-01T05:57:14;17.20;99.90
6822;DHT22;3449;48.728;8.968;2023-08-01T05:59:41;17.20;99.90
6822;DHT22;3449;48.728;8.968;2023-08-01T06:02:08;17.20;99.90
6822;DHT22;3449;48.728;8.968;2023-08-01T06:04:35;17.20;99.90
6822;DHT22;3449;48.728;8.968;2023-08-01T06:07:04;17.20;99.90
6822;DHT22;3449;48.728;8.968;2023-08-01T06:09:31;17.20;99.90
6822;DHT22;3449;48.728;8.968;2023-08-01T06:11:58;17.20;99.90
6822;DHT22;3449;48.728;8.968;2023-08-01T06:14:26;17.20;99.90
6822;DHT22;3449;48.728;8.968;2023-08-01T06:16:53;17.20;99.90
6822;DHT22;3449;48.728;8.968;2023-08-01T06:19:20;17.20;99.90
6822;DHT22;3449;48.728;8.968;2023-08-01T06:21:47;17.20;99.90
6822;DHT22;3449;48.728;8.968;2023-08-01T06:24:13;17.10;99.90
6822;DHT22;3449;48.728;8.968;2023-08-01T06:26:40;17.10;99.90
6822;DHT22;3449;48.728;8.968;2023-08-01T06:29:07;17.10;99.90
6822;DHT22;3449;48.728;8.968;2023-08-01T06:31:35;17.20;99.90
6822;DHT22;3449;48.728;8.968;2023-08-01T06:34:02;17.20;99.90
6822;DHT22;3449;48.728;8.968;2023-08-01T06:36:29;17.20;99.90
6822;DHT22;3449;48.728;8.968;2023-08-01T06:38:57;17.10;99.90
6822;DHT22;3449;48.728;8.968;2023-08-01T06:41:24;17.10;99.90
6822;DHT22;3449;48.728;8.968;2023-08-01T06:43:51;17.10;99.90
6822;DHT22;3449;48.728;8.968;2023-08-01T06:46:18;17.00;99.90
6822;DHT22;3449;48.728;8.968;2023-08-01T06:48:46;16.90;99.90
6822;DHT22;3449;48.728;8.968;2023-08-01T06:51:13;16.80;99.90
6822;DHT22;3449;48.728;8.968;2023-08-01T06:53:40;16.70;99.90
6822;DHT22;3449;48.728;8.968;2023-08-01T06:56:06;16.70;99.90
6822;DHT22;3449;48.728;8.968;2023-08-01T06:58:33;16.60;99.90
6822;DHT22;3449;48.728;8.968;2023-08-01T07:01:00;16.70;99.90
6822;DHT22;3449;48.728;8.968;2023-08-01T07:03:27;16.70;99.90
6822;DHT22;3449;48.728;8.968;2023-08-01T07:05:55;16.70;99.90
6822;DHT22;3449;48.728;8.968;2023-08-01T07:08:25;16.80;99.90
6822;DHT22;3449;48.728;8.968;2023-08-01T07:10:52;16.80;99.90
6822;DHT22;3449;48.728;8.968;2023-08-01T07:13:18;16.80;99.90
6822;DHT22;3449;48.728;8.968;2023-08-01T07:15:46;16.80;99.90
6822;DHT22;3449;48.728;8.968;2023-08-01T07:18:13;16.60;99.90
6822;DHT22;3449;48.728;8.968;2023-08-01T07:20:40;16.60;99.90
6822;DHT22;3449;48.728;8.968;2023-08-01T07:23:08;16.50;99.90
6822;DHT22;3449;48.728;8.968;2023-08-01T07:25:35;16.40;99.90
6822;DHT22;3449;48.728;8.968;2023-08-01T07:28:02;16.40;99.90
6822;DHT22;3449;48.728;8.968;2023-08-01T07:30:29;16.30;99.90
6822;DHT22;3449;48.728;8.968;2023-08-01T07:32:56;16.30;99.90
6822;DHT22;3449;48.728;8.968;2023-08-01T07:35:23;16.30;99.90
6822;DHT22;3449;48.728;8.968;2023-08-01T07:37:49;16.10;99.90
6822;DHT22;3449;48.728;8.968;2023-08-01T07:40:18;16.00;99.90
6822;DHT22;3449;48.728;8.968;2023-08-01T07:42:48;15.90;99.90
6822;DHT22;3449;48.728;8.968;2023-08-01T07:45:14;15.90;99.90
6822;DHT22;3449;48.728;8.968;2023-08-01T07:47:41;15.80;99.90
6822;DHT22;3449;48.728;8.968;2023-08-01T07:50:09;15.80;99.90
6822;DHT22;3449;48.728;8.968;2023-08-01T07:52:37;15.70;99.90
6822;DHT22;3449;48.728;8.968;2023-08-01T07:55:05;15.70;99.90
6822;DHT22;3449;48.728;8.968;2023-08-01T07:57:33;15.70;99.90
6822;DHT22;3449;48.728;8.968;2023-08-01T08:00:04;15.70;99.90
6822;DHT22;3449;48.728;8.968;2023-08-01T08:02:31;15.70;99.90
6822;DHT22;3449;48.728;8.968;2023-08-01T08:04:58;15.70;99.90
6822;DHT22;3449;48.728;8.968;2023-08-01T08:07:25;15.70;99.90
6822;DHT22;3449;48.728;8.968;2023-08-01T08:09:51;15.70;99.90
6822;DHT22;3449;48.728;8.968;2023-08-01T08:12:20;15.70;99.90
6822;DHT22;3449;48.728;8.968;2023-08-01T08:14:48;15.70;99.90
6822;DHT22;3449;48.728;8.968;2023-08-01T08:17:15;15.80;99.90
6822;DHT22;3449;48.728;8.968;2023-08-01T08:19:45;15.70;99.90
6822;DHT22;3449;48.728;8.968;2023-08-01T08:22:12;15.70;99.90
6822;DHT22;3449;48.728;8.968;2023-08-01T08:24:39;15.70;99.90
6822;DHT22;3449;48.728;8.968;2023-08-01T08:27:06;15.70;99.90
6822;DHT22;3449;48.728;8.968;2023-08-01T08:29:35;15.70;99.90
6822;DHT22;3449;48.728;8.968;2023-08-01T08:32:18;15.80;99.90
6822;DHT22;3449;48.728;8.968;2023-08-01T08:34:45;15.90;99.90
6822;DHT22;3449;48.728;8.968;2023-08-01T08:37:12;16.00;99.90
6822;DHT22;3449;48.728;8.968;2023-08-01T08:39:39;16.00;99.90
6822;DHT22;3449;48.728;8.968;2023-08-01T08:42:06;16.10;99.90
6822;DHT22;3449;48.728;8.968;2023-08-01T08:44:37;16.20;99.90
6822;DHT22;3449;48.728;8.968;2023-08-01T08:47:13;16.20;99.90
6822;DHT22;3449;48.728;8.968;2023-08-01T08:49:46;16.30;99.90
6822;DHT22;3449;48.728;8.968;2023-08-01T08:52:13;16.40;99.90
6822;DHT22;3449;48.728;8.968;2023-08-01T08:54:43;16.50;99.90
6822;DHT22;3449;48.728;8.968;2023-08-01T08:57:10;16.50;99.90
6822;DHT22;3449;48.728;8.968;2023-08-01T08:59:38;16.60;99.90
6822;DHT22;3449;48.728;8.968;2023-08-01T09:02:06;16.50;99.90
6822;DHT22;3449;48.728;8.968;2023-08-01T09:04:33;16.60;99.90
6822;DHT22;3449;48.728;8.968;2023-08-01T09:07:03;16.60;99.90
6822;DHT22;3449;48.728;8.968;2023-08-01T09:09:33;16.50;99.90
6822;DHT22;3449;48.728;8.968;2023-08-01T09:12:00;16.50;99.90
6822;DHT22;3449;48.728;8.968;2023-08-01T09:14:28;16.50;99.90
6822;DHT22;3449;48.728;8.968;2023-08-01T09:16:55;16.60;99.90
6822;DHT22;3449;48.728;8.968;2023-08-01T09:19:24;16.60;99.90
6822;DHT22;3449;48.728;8.968;2023-08-01T09:21:53;16.50;99.90
6822;DHT22;3449;48.728;8.968;2023-08-01T09:24:21;16.60;99.90
6822;DHT22;3449;48.728;8.968;2023-08-01T09:26:49;16.60;99.90
6822;DHT22;3449;48.728;8.968;2023-08-01T09:29:16;16.70;99.90
6822;DHT22;3449;48.728;8.968;2023-08-01T09:31:43;16.80;99.90
6822;DHT22;3449;48.728;8.968;2023-08-01T09:34:20;16.90;99.90
6822;DHT22;3449;48.728;8.968;2023-08-01T09:36:47;17.00;99.90
6822;DHT22;3449;48.728;8.968;2023-08-01T09:39:17;16.90;99.90
6822;DHT22;3449;48.728;8.968;2023-08-01T09:41:46;17.00;99.90
6822;DHT22;3449;48.728;8.968;2023-08-01T09:44:15;17.00;99.90
6822;DHT22;3449;48.728;8.968;2023-08-01T09:46:42;17.10;99.90
6822;DHT22;3449;48.728;8.968;2023-08-01T09:49:10;17.20;99.90
6822;DHT22;3449;48.728;8.968;2023-08-01T09:51:46;17.30;99.90
6822;DHT22;3449;48.728;8.968;2023-08-01T09:54:17;17.30;99.90
6822;DHT22;3449;48.728;8.968;2023-08-01T09:56:46;17.30;99.90
6822;DHT22;3449;48.728;8.968;2023-08-01T09:59:17;17.30;99.90
6822;DHT22;3449;48.728;8.968;2023-08-01T10:01:46;17.30;99.90
6822;DHT22;3449;48.728;8.968;2023-08-01T10:04:14;17.30;99.90
6822;DHT22;3449;48.728;8.968;2023-08-01T10:06:44;17.40;99.90
6822;DHT22;3449;48.728;8.968;2023-08-01T10:09:13;17.40;99.90
6822;DHT22;3449;48.728;8.968;2023-08-01T10:11:40;17.40;99.90
6822;DHT22;3449;48.728;8.968;2023-08-01T10:14:10;17.40;99.90
6822;DHT22;3449;48.728;8.968;2023-08-01T10:16:37;17.40;99.90
6822;DHT22;3449;48.728;8.968;2023-08-01T10:19:06;17.50;99.90
6822;DHT22;3449;48.728;8.968;2023-08-01T10:21:34;17.50;99.90
6822;DHT22;3449;48.728;8.968;2023-08-01T10:24:05;17.60;99.90
6822;DHT22;3449;48.728;8.968;2023-08-01T10:26:33;17.60;99.90
6822;DHT22;3449;48.728;8.968;2023-08-01T10:29:00;17.60;99.90
6822;DHT22;3449;48.728;8.968;2023-08-01T10:31:51;17.60;99.90
6822;DHT22;3449;48.728;8.968;2023-08-01T10:34:18;17.70;99.90
6822;DHT22;3449;48.728;8.968;2023-08-01T10:36:53;17.70;99.90
6822;DHT22;3449;48.728;8.968;2023-08-01T10:39:21;17.80;99.90
6822;DHT22;3449;48.728;8.968;2023-08-01T10:41:57;18.20;99.90
6822;DHT22;3449;48.728;8.968;2023-08-01T10:44:26;18.50;99.90
6822;DHT22;3449;48.728;8.968;2023-08-01T10:46:57;18.80;99.90
6822;DHT22;3449;48.728;8.968;2023-08-01T10:49:35;18.90;99.90
6822;DHT22;3449;48.728;8.968;2023-08-01T10:52:02;19.40;99.90
6822;DHT22;3449;48.728;8.968;2023-08-01T10:54:29;19.80;99.90
6822;DHT22;3449;48.728;8.968;2023-08-01T10:56:57;20.00;99.90
6822;DHT22;3449;48.728;8.968;2023-08-01T10:59:25;19.90;99.90
6822;DHT22;3449;48.728;8.968;2023-08-01T11:01:52;19.90;99.90
6822;DHT22;3449;48.728;8.968;2023-08-01T11:04:22;20.00;99.90
6822;DHT22;3449;48.728;8.968;2023-08-01T11:06:51;20.00;99.90
6822;DHT22;3449;48.728;8.968;2023-08-01T11:09:19;19.70;99.90
6822;DHT22;3449;48.728;8.968;2023-08-01T11:11:51;19.50;99.90
6822;DHT22;3449;48.728;8.968;2023-08-01T11:14:20;19.30;99.90
6822;DHT22;3449;48.728;8.968;2023-08-01T11:19:30;19.40;99.90
6822;DHT22;3449;48.728;8.968;2023-08-01T11:22:09;19.90;99.90
6822;DHT22;3449;48.728;8.968;2023-08-01T11:24:37;20.30;99.90
6822;DHT22;3449;48.728;8.968;2023-08-01T11:27:10;20.80;99.90
6822;DHT22;3449;48.728;8.968;2023-08-01T11:29:38;21.00;99.90
6822;DHT22;3449;48.728;8.968;2023-08-01T11:32:06;21.10;99.90
6822;DHT22;3449;48.728;8.968;2023-08-01T11:34:41;21.30;99.90
6822;DHT22;3449;48.728;8.968;2023-08-01T11:37:09;21.50;99.90
6822;DHT22;3449;48.728;8.968;2023-08-01T11:39:37;21.90;99.90
6822;DHT22;3449;48.728;8.968;2023-08-01T11:42:04;22.20;99.90
6822;DHT22;3449;48.728;8.968;2023-08-01T11:44:31;22.30;99.90
6822;DHT22;3449;48.728;8.968;2023-08-01T11:46:58;22.30;99.90
6822;DHT22;3449;48.728;8.968;2023-08-01T11:49:25;21.90;99.90
6822;DHT22;3449;48.728;8.968;2023-08-01T11:51:53;22.10;99.90
6822;DHT22;3449;48.728;8.968;2023-08-01T11:54:20;22.60;99.90
6822;DHT22;3449;48.728;8.968;2023-08-01T11:56:47;22.70;99.90
6822;DHT22;3449;48.728;8.968;2023-08-01T11:59:16;22.90;99.90
6822;DHT22;3449;48.728;8.968;2023-08-01T12:01:44;22.60;99.90
6822;DHT22;3449;48.728;8.968;2023-08-01T12:04:23;22.40;99.90
6822;DHT22;3449;48.728;8.968;2023-08-01T12:06:50;22.50;99.90
6822;DHT22;3449;48.728;8.968;2023-08-01T12:09:19;22.40;99.90
6822;DHT22;3449;48.728;8.968;2023-08-01T12:11:46;22.20;99.90
6822;DHT22;3449;48.728;8.968;2023-08-01T12:14:15;22.10;99.90
6822;DHT22;3449;48.728;8.968;2023-08-01T12:16:43;22.40;99.90
6822;DHT22;3449;48.728;8.968;2023-08-01T12:19:11;22.70;99.90
6822;DHT22;3449;48.728;8.968;2023-08-01T12:21:43;22.90;99.90
6822;DHT22;3449;48.728;8.968;2023-08-01T12:24:10;23.20;99.90
6822;DHT22;3449;48.728;8.968;2023-08-01T12:26:38;23.30;99.90
6822;DHT22;3449;48.728;8.968;2023-08-01T12:29:05;23.40;99.90
6822;DHT22;3449;48.728;8.968;2023-08-01T12:31:36;23.50;99.90
6822;DHT22;3449;48.728;8.968;2023-08-01T12:34:03;23.40;99.90
6822;DHT22;3449;48.728;8.968;2023-08-01T12:36:29;23.00;99.90
6822;DHT22;3449;48.728;8.968;2023-08-01T12:38:56;23.00;99.90
6822;DHT22;3449;48.728;8.968;2023-08-01T12:41:23;23.10;99.90
6822;DHT22;3449;48.728;8.968;2023-08-01T12:43:51;23.20;99.90
6822;DHT22;3449;48.728;8.968;2023-08-01T12:46:18;23.40;99.90
6822;DHT22;3449;48.728;8.968;2023-08-01T12:48:48;23.50;99.90
6822;DHT22;3449;48.728;8.968;2023-08-01T12:51:15;23.70;99.90
6822;DHT22;3449;48.728;8.968;2023-08-01T12:53:42;23.50;99.90
6822;DHT22;3449;48.728;8.968;2023-08-01T12:56:09;23.40;99.90
6822;DHT22;3449;48.728;8.968;2023-08-01T12:58:37;23.60;99.90
6822;DHT22;3449;48.728;8.968;2023-08-01T13:01:06;23.70;99.90
6822;DHT22;3449;48.728;8.968;2023-08-01T13:03:34;23.70;99.90
6822;DHT22;3449;48.728;8.968;2023-08-01T13:06:02;23.60;99.90
6822;DHT22;3449;48.728;8.968;2023-08-01T13:08:29;23.80;99.90
6822;DHT22;3449;48.728;8.968;2023-08-01T13:10:57;24.00;99.90
6822;DHT22;3449;48.728;8.968;2023-08-01T13:13:29;24.10;99.90
6822;DHT22;3449;48.728;8.968;2023-08-01T13:16:00;24.30;99.90
6822;DHT22;3449;48.728;8.968;2023-08-01T13:18:31;24.50;99.90
6822;DHT22;3449;48.728;8.968;2023-08-01T13:20:58;24.80;99.90
6822;DHT22;3449;48.728;8.968;2023-08-01T13:23:25;24.80;99.90
6822;DHT22;3449;48.728;8.968;2023-08-01T13:25:52;24.70;99.90
6822;DHT22;3449;48.728;8.968;2023-08-01T13:28:20;24.10;99.90
6822;DHT22;3449;48.728;8.968;2023-08-01T13:30:47;23.70;99.90
6822;DHT22;3449;48.728;8.968;2023-08-01T13:33:17;23.50;99.90
6822;DHT22;3449;48.728;8.968;2023-08-01T13:35:45;23.50;99.90
6822;DHT22;3449;48.728;8.968;2023-08-01T13:38:12;23.80;99.90
6822;DHT22;3449;48.728;8.968;2023-08-01T13:40:39;24.20;99.90
6822;DHT22;3449;48.728;8.968;2023-08-01T13:43:06;24.30;99.90
6822;DHT22;3449;48.728;8.968;2023-08-01T13:45:35;23.90;99.90
6822;DHT22;3449;48.728;8.968;2023-08-01T13:48:02;24.00;99.90
6822;DHT22;3449;48.728;8.968;2023-08-01T13:50:29;23.90;99.90
6822;DHT22;3449;48.728;8.968;2023-08-01T13:52:57;23.90;99.90
6822;DHT22;3449;48.728;8.968;2023-08-01T13:55:24;24.00;99.90
6822;DHT22;3449;48.728;8.968;2023-08-01T13:57:52;24.20;99.90
6822;DHT22;3449;48.728;8.968;2023-08-01T14:00:21;24.60;99.90
6822;DHT22;3449;48.728;8.968;2023-08-01T14:02:49;24.80;99.90
6822;DHT22;3449;48.728;8.968;2023-08-01T14:05:17;24.80;99.90
6822;DHT22;3449;48.728;8.968;2023-08-01T14:07:43;24.90;99.90
6822;DHT22;3449;48.728;8.968;2023-08-01T14:10:14;24.80;99.90
6822;DHT22;3449;48.728;8.968;2023-08-01T14:12:44;24.80;99.90
6822;DHT22;3449;48.728;8.968;2023-08-01T14:15:11;24.80;99.90
6822;DHT22;3449;48.728;8.968;2023-08-01T14:17:38;24.40;99.90
6822;DHT22;3449;48.728;8.968;2023-08-01T14:20:07;24.30;99.90
6822;DHT22;3449;48.728;8.968;2023-08-01T14:22:34;24.60;99.90
6822;DHT22;3449;48.728;8.968;2023-08-01T14:25:01;24.70;99.90
6822;DHT22;3449;48.728;8.968;2023-08-01T14:27:29;24.70;99.90
6822;DHT22;3449;48.728;8.968;2023-08-01T14:29:56;24.90;99.90
6822;DHT22;3449;48.728;8.968;2023-08-01T14:32:23;25.20;99.90
6822;DHT22;3449;48.728;8.968;2023-08-01T14:34:50;25.20;99.90
6822;DHT22;3449;48.728;8.968;2023-08-01T14:37:18;24.80;99.90
6822;DHT22;3449;48.728;8.968;2023-08-01T14:39:49;24.80;99.90
6822;DHT22;3449;48.728;8.968;2023-08-01T14:42:16;24.60;99.90
6822;DHT22;3449;48.728;8.968;2023-08-01T14:44:44;24.60;99.90
6822;DHT22;3449;48.728;8.968;2023-08-01T14:47:11;24.90;99.90
6822;DHT22;3449;48.728;8.968;2023-08-01T14:49:39;25.20;99.90
6822;DHT22;3449;48.728;8.968;2023-08-01T14:52:09;24.80;99.90
6822;DHT22;3449;48.728;8.968;2023-08-01T14:54:36;24.60;99.90
6822;DHT22;3449;48.728;8.968;2023-08-01T14:57:04;24.90;99.90
6822;DHT22;3449;48.728;8.968;2023-08-01T14:59:31;25.10;99.90
6822;DHT22;3449;48.728;8.968;2023-08-01T15:01:59;25.20;99.90
6822;DHT22;3449;48.728;8.968;2023-08-01T15:04:27;25.20;99.90
6822;DHT22;3449;48.728;8.968;2023-08-01T15:06:54;25.10;99.90
6822;DHT22;3449;48.728;8.968;2023-08-01T15:09:21;25.40;99.90
6822;DHT22;3449;48.728;8.968;2023-08-01T15:11:48;25.40;99.90
6822;DHT22;3449;48.728;8.968;2023-08-01T15:14:15;25.50;99.90
6822;DHT22;3449;48.728;8.968;2023-08-01T15:16:41;25.50;99.90
6822;DHT22;3449;48.728;8.968;2023-08-01T15:19:10;25.60;99.90
6822;DHT22;3449;48.728;8.968;2023-08-01T15:21:36;25.60;99.90
6822;DHT22;3449;48.728;8.968;2023-08-01T15:24:04;25.80;99.90
6822;DHT22;3449;48.728;8.968;2023-08-01T15:26:31;25.80;99.90
6822;DHT22;3449;48.728;8.968;2023-08-01T15:28:58;25.20;99.90
6822;DHT22;3449;48.728;8.968;2023-08-01T15:31:24;24.90;99.90
6822;DHT22;3449;48.728;8.968;2023-08-01T15:33:51;24.90;99.90
6822;DHT22;3449;48.728;8.968;2023-08-01T15:36:25;24.90;99.90
6822;DHT22;3449;48.728;8.968;2023-08-01T15:38:56;24.70;99.90
6822;DHT22;3449;48.728;8.968;2023-08-01T15:41:23;24.40;99.90
6822;DHT22;3449;48.728;8.968;2023-08-01T15:43:50;24.00;99.90
6822;DHT22;3449;48.728;8.968;2023-08-01T15:46:17;23.80;99.90
6822;DHT22;3449;48.728;8.968;2023-08-01T15:48:44;23.40;99.90
6822;DHT22;3449;48.728;8.968;2023-08-01T15:51:11;23.10;99.90
6822;DHT22;3449;48.728;8.968;2023-08-01T15:53:39;22.80;99.90
6822;DHT22;3449;48.728;8.968;2023-08-01T15:56:07;22.80;99.90
6822;DHT22;3449;48.728;8.968;2023-08-01T15:58:36;23.20;99.90
6822;DHT22;3449;48.728;8.968;2023-08-01T16:01:03;23.50;99.90
6822;DHT22;3449;48.728;8.968;2023-08-01T16:03:32;23.70;99.90
6822;DHT22;3449;48.728;8.968;2023-08-01T16:05:58;23.60;99.90
6822;DHT22;3449;48.728;8.968;2023-08-01T16:08:25;23.70;99.90